Time;durP1;ratioP1;P1;durP2;ratioP2;P2;SDS_P1;SDS_P2;PMS_P1;PMS_P2;Temp;Humidity;BMP_temperature;BMP_pressure;BME280_temperature;BME280_humidity;BME280_pressure;Samples;Min_cycle;Max_cycle;Signal;HPM_P1;HPM_P2
2022/08/19 00:01:54;;;;;;;6.72;6.03;;;;;;;;;;5048461;28;20064;-65
2022/08/19 00:04:23;;;;;;;6.50;5.80;;;;;;;;;;5049316;28;20101;-65
2022/08/19 00:06:49;;;;;;;7.03;5.80;;;;;;;;;;5049525;28;20139;-66
2022/08/19 00:09:17;;;;;;;6.40;5.80;;;;;;;;;;5050552;28;20060;-64
2022/08/19 00:11:45;;;;;;;7.47;6.15;;;;;;;;;;5051109;28;20057;-65
2022/08/19 00:14:12;;;;;;;7.03;5.35;;;;;;;;;;5051105;28;20060;-65
2022/08/19 00:16:40;;;;;;;8.18;6.15;;;;;;;;;;5049084;28;20053;-65
2022/08/19 00:19:07;;;;;;;6.13;5.35;;;;;;;;;;5050852;28;20059;-68
2022/08/19 00:21:38;;;;;;;6.43;5.82;;;;;;;;;;5050600;28;20057;-65
2022/08/19 00:24:04;;;;;;;6.53;5.82;;;;;;;;;;5045869;28;20481;-67
2022/08/19 00:26:31;;;;;;;9.23;6.32;;;;;;;;;;5050554;28;20050;-66
2022/08/19 00:28:57;;;;;;;7.03;6.32;;;;;;;;;;5049415;28;20049;-66
2022/08/19 00:31:24;;;;;;;7.85;6.50;;;;;;;;;;5051505;28;20521;-65
2022/08/19 00:33:51;;;;;;;7.10;6.38;;;;;;;;;;5050796;28;20092;-66
2022/08/19 00:36:17;;;;;;;7.05;5.95;;;;;;;;;;5047985;28;20057;-66
2022/08/19 00:38:44;;;;;;;7.40;6.55;;;;;;;;;;5049298;28;20523;-65
2022/08/19 00:41:12;;;;;;;6.82;5.65;;;;;;;;;;5050191;28;20059;-65
2022/08/19 00:43:40;;;;;;;6.57;5.85;;;;;;;;;;5042181;28;20054;-67
2022/08/19 00:46:06;;;;;;;6.55;5.63;;;;;;;;;;5047168;28;20958;-66
2022/08/19 00:48:33;;;;;;;9.52;6.53;;;;;;;;;;5042945;28;20100;-66
2022/08/19 00:51:00;;;;;;;7.00;6.28;;;;;;;;;;5041062;28;20107;-66
2022/08/19 00:53:28;;;;;;;8.50;6.68;;;;;;;;;;5046633;28;20054;-65
2022/08/19 00:55:56;;;;;;;9.00;6.13;;;;;;;;;;5049314;28;20057;-66
2022/08/19 00:58:24;;;;;;;7.00;6.15;;;;;;;;;;5050996;28;20054;-65
2022/08/19 01:00:50;;;;;;;7.40;6.68;;;;;;;;;;5049873;28;20061;-65
2022/08/19 01:03:19;;;;;;;8.82;7.10;;;;;;;;;;5049503;28;20059;-66
2022/08/19 01:05:45;;;;;;;9.35;7.32;;;;;;;;;;5049731;28;20068;-65
2022/08/19 01:08:14;;;;;;;10.30;8.40;;;;;;;;;;5049668;28;20053;-68
2022/08/19 01:10:43;;;;;;;13.27;8.73;;;;;;;;;;5050338;28;20626;-65
2022/08/19 01:13:09;;;;;;;10.82;8.43;;;;;;;;;;5050635;28;20060;-65
2022/08/19 01:15:44;;;;;;;13.10;9.32;;;;;;;;;;5048897;28;20057;-65
2022/08/19 01:18:11;;;;;;;8.82;7.80;;;;;;;;;;5049501;28;20516;-67
2022/08/19 01:20:38;;;;;;;7.65;6.82;;;;;;;;;;5050239;28;20045;-65
2022/08/19 01:23:04;;;;;;;9.35;7.72;;;;;;;;;;5049884;28;20053;-65
2022/08/19 01:25:33;;;;;;;9.20;8.20;;;;;;;;;;5049122;28;20064;-67
2022/08/19 01:27:59;;;;;;;12.30;8.27;;;;;;;;;;5048056;28;20106;-66
2022/08/19 01:30:36;;;;;;;8.85;7.95;;;;;;;;;;5049909;28;20058;-65
2022/08/19 01:33:05;;;;;;;11.82;9.10;;;;;;;;;;5050201;28;20057;-68
2022/08/19 01:35:32;;;;;;;12.05;9.68;;;;;;;;;;5050524;28;20053;-67
2022/08/19 01:38:05;;;;;;;11.82;8.85;;;;;;;;;;5049844;28;20523;-65
2022/08/19 01:40:33;;;;;;;10.82;8.88;;;;;;;;;;5048866;28;20517;-66
2022/08/19 01:42:59;;;;;;;10.57;9.43;;;;;;;;;;5049802;28;20061;-65
2022/08/19 01:45:27;;;;;;;9.57;8.57;;;;;;;;;;5044738;28;20124;-65
2022/08/19 01:47:54;;;;;;;14.70;9.38;;;;;;;;;;5048664;28;20888;-65
2022/08/19 01:50:28;;;;;;;10.18;9.18;;;;;;;;;;5049451;28;20517;-65
2022/08/19 01:52:54;;;;;;;11.98;10.32;;;;;;;;;;5050286;28;20383;-66
2022/08/19 01:55:32;;;;;;;11.70;9.45;;;;;;;;;;5049065;28;20493;-67
2022/08/19 01:58:01;;;;;;;12.38;9.93;;;;;;;;;;5049046;28;20061;-67
2022/08/19 02:00:29;;;;;;;12.20;10.73;;;;;;;;;;5038154;28;20045;-66
2022/08/19 02:02:55;;;;;;;11.40;9.90;;;;;;;;;;5049190;28;20057;-66
2022/08/19 02:05:22;;;;;;;13.13;9.82;;;;;;;;;;5045561;28;20141;-66
2022/08/19 02:07:49;;;;;;;9.95;8.95;;;;;;;;;;5048032;28;20085;-67
2022/08/19 02:10:18;;;;;;;11.50;9.30;;;;;;;;;;5048487;28;20505;-66
2022/08/19 02:12:45;;;;;;;15.07;10.27;;;;;;;;;;5052842;28;20516;-67
2022/08/19 02:15:13;;;;;;;11.48;10.23;;;;;;;;;;5045728;28;20058;-66
2022/08/19 02:17:39;;;;;;;11.00;9.90;;;;;;;;;;5049386;28;20057;-66
2022/08/19 02:20:06;;;;;;;14.35;9.80;;;;;;;;;;5049257;28;20052;-65
2022/08/19 02:22:33;;;;;;;12.63;10.93;;;;;;;;;;5047759;28;20067;-67
2022/08/19 02:24:59;;;;;;;13.48;10.55;;;;;;;;;;5048799;28;20057;-66
2022/08/19 02:27:26;;;;;;;12.98;9.40;;;;;;;;;;5048412;28;20056;-66
2022/08/19 02:29:52;;;;;;;11.57;9.43;;;;;;;;;;5049608;28;20064;-66
2022/08/19 02:32:19;;;;;;;12.25;9.77;;;;;;;;;;5049868;28;20065;-67
2022/08/19 02:34:46;;;;;;;9.98;8.98;;;;;;;;;;5051585;28;20057;-65
2022/08/19 02:40:01;;;;;;;11.63;10.43;;;;;;;;;;5036227;28;20049;-67
2022/08/19 02:42:28;;;;;;;16.70;9.88;;;;;;;;;;5047930;28;20053;-66
2022/08/19 02:44:55;;;;;;;15.02;9.88;;;;;;;;;;5048065;28;20527;-67
2022/08/19 02:47:21;;;;;;;11.27;9.25;;;;;;;;;;5050122;28;20079;-65
2022/08/19 02:49:49;;;;;;;12.02;9.60;;;;;;;;;;5049845;28;20057;-66
2022/08/19 02:52:16;;;;;;;10.77;9.70;;;;;;;;;;5049121;28;20534;-66
2022/08/19 02:54:42;;;;;;;9.70;8.57;;;;;;;;;;5040996;28;20049;-65
2022/08/19 02:57:09;;;;;;;11.52;9.27;;;;;;;;;;5052389;28;20053;-66
2022/08/19 02:59:35;;;;;;;11.82;9.35;;;;;;;;;;5050438;28;20050;-67
2022/08/19 03:02:01;;;;;;;14.20;9.52;;;;;;;;;;5057881;28;20574;-67
2022/08/19 03:04:29;;;;;;;12.43;9.20;;;;;;;;;;5051763;28;20059;-67
2022/08/19 03:06:55;;;;;;;10.85;8.55;;;;;;;;;;5050093;28;20513;-65
2022/08/19 03:09:32;;;;;;;10.35;9.20;;;;;;;;;;5052697;28;20061;-66
2022/08/19 03:11:58;;;;;;;10.63;9.43;;;;;;;;;;5051845;28;20075;-66
2022/08/19 03:14:24;;;;;;;10.55;8.52;;;;;;;;;;5048620;28;20057;-65
2022/08/19 03:16:51;;;;;;;10.27;9.13;;;;;;;;;;5046935;28;20507;-66
2022/08/19 03:19:18;;;;;;;12.68;10.02;;;;;;;;;;5048448;28;20056;-66
2022/08/19 03:21:45;;;;;;;13.38;9.40;;;;;;;;;;5052047;28;20064;-66
2022/08/19 03:24:11;;;;;;;10.63;9.23;;;;;;;;;;5051381;28;20053;-66
2022/08/19 03:26:39;;;;;;;10.90;9.13;;;;;;;;;;5050261;28;20049;-66
2022/08/19 03:29:05;;;;;;;12.75;9.05;;;;;;;;;;5051473;28;20517;-66
2022/08/19 03:31:34;;;;;;;12.10;10.20;;;;;;;;;;5051717;28;20056;-65
2022/08/19 03:34:20;;;;;;;10.65;9.45;;;;;;;;;;5051868;28;20053;-65
2022/08/19 03:36:46;;;;;;;16.13;9.45;;;;;;;;;;5044761;28;20158;-66
2022/08/19 03:39:13;;;;;;;13.60;9.55;;;;;;;;;;5044208;28;20058;-66
2022/08/19 03:41:41;;;;;;;12.45;9.95;;;;;;;;;;5052001;28;20069;-67
2022/08/19 03:44:12;;;;;;;12.07;10.15;;;;;;;;;;5051524;28;20049;-66
2022/08/19 03:46:45;;;;;;;11.63;9.82;;;;;;;;;;5047732;28;20049;-66
2022/08/19 03:49:11;;;;;;;11.55;9.70;;;;;;;;;;5050728;28;20053;-66
2022/08/19 03:51:40;;;;;;;12.32;9.88;;;;;;;;;;5051804;28;20060;-66
2022/08/19 03:54:08;;;;;;;11.30;9.38;;;;;;;;;;5050642;28;20123;-67
2022/08/19 03:56:38;;;;;;;14.23;10.82;;;;;;;;;;5051121;28;20052;-69
2022/08/19 03:59:05;;;;;;;13.77;10.52;;;;;;;;;;5051896;28;20049;-66
2022/08/19 04:01:32;;;;;;;12.68;10.38;;;;;;;;;;5050960;28;20056;-65
2022/08/19 04:04:01;;;;;;;12.00;9.55;;;;;;;;;;5049927;28;20132;-67
2022/08/19 04:06:30;;;;;;;16.50;9.95;;;;;;;;;;5050686;28;20057;-66
2022/08/19 04:08:57;;;;;;;12.98;10.35;;;;;;;;;;5049177;28;20057;-65
2022/08/19 04:11:44;;;;;;;11.70;9.45;;;;;;;;;;5051961;28;20053;-67
2022/08/19 04:14:18;;;;;;;12.23;9.63;;;;;;;;;;5051019;28;20045;-66
2022/08/19 04:16:46;;;;;;;15.45;10.45;;;;;;;;;;5049202;28;20531;-65
2022/08/19 04:19:13;;;;;;;13.20;9.25;;;;;;;;;;5047196;28;20049;-65
2022/08/19 04:21:39;;;;;;;15.98;10.70;;;;;;;;;;5050698;28;20053;-65
2022/08/19 04:24:06;;;;;;;14.85;9.88;;;;;;;;;;5052081;28;20558;-66
2022/08/19 04:26:34;;;;;;;12.45;9.93;;;;;;;;;;5050707;28;20511;-66
2022/08/19 04:29:03;;;;;;;11.63;9.98;;;;;;;;;;5049223;28;20058;-65
2022/08/19 04:31:30;;;;;;;12.50;10.00;;;;;;;;;;5051571;28;20058;-66
2022/08/19 04:33:58;;;;;;;12.05;9.30;;;;;;;;;;5049171;28;20133;-66
2022/08/19 04:36:26;;;;;;;10.88;9.68;;;;;;;;;;5046371;28;20149;-66
2022/08/19 04:38:53;;;;;;;13.18;9.43;;;;;;;;;;5050054;28;20551;-66
2022/08/19 04:44:05;;;;;;;12.03;9.13;;;;;;;;;;5049576;28;20544;-67
2022/08/19 04:46:31;;;;;;;10.73;9.25;;;;;;;;;;5047828;28;20308;-66
2022/08/19 04:49:08;;;;;;;13.68;10.68;;;;;;;;;;5050792;28;20671;-66
2022/08/19 04:51:39;;;;;;;14.20;10.52;;;;;;;;;;5049507;28;20147;-66
2022/08/19 04:54:06;;;;;;;13.95;10.38;;;;;;;;;;5047507;28;20062;-66
2022/08/19 04:56:32;;;;;;;14.63;9.73;;;;;;;;;;5050797;28;20049;-66
2022/08/19 04:59:02;;;;;;;16.13;10.43;;;;;;;;;;5048494;28;20053;-66
2022/08/19 05:01:29;;;;;;;13.23;9.93;;;;;;;;;;5045979;28;20049;-66
2022/08/19 05:03:56;;;;;;;11.80;9.98;;;;;;;;;;5051168;28;20058;-67
2022/08/19 05:06:22;;;;;;;13.20;10.02;;;;;;;;;;5050993;28;20053;-66
2022/08/19 05:08:49;;;;;;;12.13;9.65;;;;;;;;;;5044533;28;20073;-66
2022/08/19 05:11:21;;;;;;;12.55;10.15;;;;;;;;;;5031589;28;20054;-65
2022/08/19 05:13:52;;;;;;;11.63;9.77;;;;;;;;;;5049383;28;20510;-66
2022/08/19 05:16:20;;;;;;;13.98;9.95;;;;;;;;;;5050810;28;20064;-65
2022/08/19 05:24:18;;;;;;;12.18;9.25;;;;;;;;;;5049061;28;42734;-66
2022/08/19 05:26:46;;;;;;;11.95;10.07;;;;;;;;;;5049840;28;20473;-66
2022/08/19 05:29:13;;;;;;;14.73;10.40;;;;;;;;;;5050643;28;20128;-67
2022/08/19 05:31:40;;;;;;;14.93;10.60;;;;;;;;;;5050380;28;20076;-66
2022/08/19 05:34:07;;;;;;;12.65;10.32;;;;;;;;;;5035031;28;20054;-66
2022/08/19 05:36:46;;;;;;;14.63;11.35;;;;;;;;;;5050575;28;20501;-65
2022/08/19 05:39:15;;;;;;;15.63;11.52;;;;;;;;;;5047721;28;20131;-66
2022/08/19 05:41:44;;;;;;;20.05;13.93;;;;;;;;;;5048536;28;20501;-67
2022/08/19 05:44:10;;;;;;;21.23;15.52;;;;;;;;;;5047871;28;20156;-66
2022/08/19 05:46:37;;;;;;;25.15;16.85;;;;;;;;;;5051204;28;20057;-67
2022/08/19 05:49:07;;;;;;;32.03;20.85;;;;;;;;;;5050154;28;20050;-66
2022/08/19 05:51:34;;;;;;;32.45;19.98;;;;;;;;;;5050433;28;20059;-68
2022/08/19 05:54:01;;;;;;;31.30;20.23;;;;;;;;;;5048752;28;20576;-67
2022/08/19 05:56:30;;;;;;;42.38;23.90;;;;;;;;;;5047696;28;20397;-68
2022/08/19 05:58:56;;;;;;;47.75;26.75;;;;;;;;;;5049424;28;20075;-66
2022/08/19 06:01:25;;;;;;;51.53;27.38;;;;;;;;;;5047575;28;20061;-66
2022/08/19 06:03:51;;;;;;;55.65;27.33;;;;;;;;;;5048124;28;20057;-66
2022/08/19 06:06:19;;;;;;;46.45;25.65;;;;;;;;;;5047665;28;20057;-66
2022/08/19 06:08:49;;;;;;;53.78;27.98;;;;;;;;;;5050414;28;20065;-67
2022/08/19 06:11:18;;;;;;;50.70;26.17;;;;;;;;;;5054250;28;20148;-67
2022/08/19 06:13:47;;;;;;;51.00;28.48;;;;;;;;;;5052805;28;20053;-65
2022/08/19 06:16:20;;;;;;;56.65;28.85;;;;;;;;;;5050980;28;20136;-66
2022/08/19 06:18:46;;;;;;;53.95;28.23;;;;;;;;;;5052540;28;20068;-67
2022/08/19 06:21:13;;;;;;;55.30;28.98;;;;;;;;;;5051542;28;20045;-67
2022/08/19 06:23:40;;;;;;;51.70;29.05;;;;;;;;;;5050544;28;20582;-66
2022/08/19 06:26:11;;;;;;;58.45;28.88;;;;;;;;;;5053700;28;20053;-66
2022/08/19 06:28:42;;;;;;;50.70;28.98;;;;;;;;;;5052461;28;20509;-66
2022/08/19 06:31:09;;;;;;;58.67;30.25;;;;;;;;;;5050590;28;20054;-65
2022/08/19 06:33:36;;;;;;;48.40;28.35;;;;;;;;;;5053202;28;20057;-66
2022/08/19 06:36:02;;;;;;;45.05;27.08;;;;;;;;;;5053738;28;20053;-64
2022/08/19 06:38:29;;;;;;;50.65;28.98;;;;;;;;;;5051421;28;20051;-65
2022/08/19 06:41:02;;;;;;;51.20;28.73;;;;;;;;;;5053258;28;20497;-66
2022/08/19 06:43:33;;;;;;;46.45;27.48;;;;;;;;;;5049311;28;20049;-65
2022/08/19 06:46:00;;;;;;;56.50;29.58;;;;;;;;;;5051875;28;20515;-64
2022/08/19 06:48:27;;;;;;;51.88;27.67;;;;;;;;;;5053584;28;20049;-68
2022/08/19 06:50:54;;;;;;;54.63;27.67;;;;;;;;;;5053275;28;20057;-65
2022/08/19 06:53:20;;;;;;;57.25;28.40;;;;;;;;;;5051730;28;20140;-65
2022/08/19 06:56:01;;;;;;;56.65;28.05;;;;;;;;;;5052556;28;20097;-66
2022/08/19 06:58:34;;;;;;;53.25;26.48;;;;;;;;;;5050335;28;20057;-66
2022/08/19 07:01:03;;;;;;;60.05;28.50;;;;;;;;;;5051801;28;20060;-65
2022/08/19 07:03:35;;;;;;;60.05;28.63;;;;;;;;;;5052087;28;20064;-67
2022/08/19 07:06:04;;;;;;;54.95;27.83;;;;;;;;;;5052470;28;20491;-70
2022/08/19 07:08:36;;;;;;;63.40;28.33;;;;;;;;;;5051171;28;20065;-66
2022/08/19 07:11:09;;;;;;;62.42;27.73;;;;;;;;;;5051596;28;20129;-65
2022/08/19 07:13:36;;;;;;;52.03;28.92;;;;;;;;;;5051513;28;20090;-66
2022/08/19 07:16:07;;;;;;;56.30;31.73;;;;;;;;;;5051631;28;20156;-66
2022/08/19 07:18:34;;;;;;;49.13;29.27;;;;;;;;;;5051629;28;20157;-67
2022/08/19 07:21:05;;;;;;;58.70;30.27;;;;;;;;;;5051705;28;20046;-67
2022/08/19 07:23:34;;;;;;;56.78;30.58;;;;;;;;;;5053012;28;20088;-66
2022/08/19 07:26:16;;;;;;;61.00;30.33;;;;;;;;;;5052134;28;20055;-66
2022/08/19 07:28:44;;;;;;;55.85;30.60;;;;;;;;;;5047357;28;20049;-66
2022/08/19 07:31:18;;;;;;;58.13;30.95;;;;;;;;;;5052232;28;20136;-65
2022/08/19 07:33:51;;;;;;;55.33;30.17;;;;;;;;;;5052465;28;20053;-66
2022/08/19 07:36:22;;;;;;;58.58;32.70;;;;;;;;;;5050983;28;20072;-65
2022/08/19 07:38:51;;;;;;;58.20;32.00;;;;;;;;;;5034260;28;20057;-64
2022/08/19 07:41:19;;;;;;;50.47;30.60;;;;;;;;;;5042708;28;20520;-64
2022/08/19 07:43:46;;;;;;;60.50;32.72;;;;;;;;;;5038852;28;20053;-64
2022/08/19 07:46:13;;;;;;;57.97;32.35;;;;;;;;;;5051196;28;20059;-64
2022/08/19 07:48:43;;;;;;;58.17;32.47;;;;;;;;;;5051578;28;20515;-64
2022/08/19 07:51:10;;;;;;;53.33;31.10;;;;;;;;;;5052858;28;20110;-64
2022/08/19 07:53:39;;;;;;;52.53;30.73;;;;;;;;;;5051773;28;20148;-64
2022/08/19 07:56:05;;;;;;;53.58;30.80;;;;;;;;;;5053847;28;20049;-66
2022/08/19 07:58:37;;;;;;;54.78;29.63;;;;;;;;;;5048495;28;20142;-65
2022/08/19 08:01:04;;;;;;;51.85;29.50;;;;;;;;;;5049066;28;20145;-65
2022/08/19 08:09:11;;;;;;;42.80;26.03;;;;;;;;;;5042580;28;20057;-66
2022/08/19 08:11:48;;;;;;;43.35;26.15;;;;;;;;;;5046449;28;20292;-66
2022/08/19 08:14:27;;;;;;;47.28;24.95;;;;;;;;;;5050175;28;20524;-65
2022/08/19 08:16:55;;;;;;;41.50;24.67;;;;;;;;;;5051097;28;20053;-64
2022/08/19 08:19:25;;;;;;;43.60;26.25;;;;;;;;;;5051389;28;20045;-65
2022/08/19 08:21:52;;;;;;;50.30;27.27;;;;;;;;;;5049713;28;20053;-65
2022/08/19 08:24:19;;;;;;;47.97;27.00;;;;;;;;;;5053097;28;20051;-64
2022/08/19 08:26:46;;;;;;;38.15;25.83;;;;;;;;;;5050512;28;20537;-63
2022/08/19 08:29:19;;;;;;;39.75;23.92;;;;;;;;;;5049356;28;20054;-64
2022/08/19 08:31:46;;;;;;;39.83;24.08;;;;;;;;;;5050395;28;20084;-64
2022/08/19 08:34:18;;;;;;;33.10;22.25;;;;;;;;;;5051043;28;20231;-65
2022/08/19 08:36:46;;;;;;;37.78;23.70;;;;;;;;;;5040352;28;20505;-65
2022/08/19 08:39:14;;;;;;;35.42;22.38;;;;;;;;;;5050426;28;20057;-66
2022/08/19 08:41:44;;;;;;;40.30;23.42;;;;;;;;;;5051423;28;20592;-65
2022/08/19 08:44:14;;;;;;;37.25;23.30;;;;;;;;;;5051232;28;20050;-65
2022/08/19 08:46:51;;;;;;;33.70;22.30;;;;;;;;;;5048727;28;20515;-66
2022/08/19 08:49:38;;;;;;;38.47;23.15;;;;;;;;;;5051722;28;20144;-66
2022/08/19 08:52:28;;;;;;;34.17;21.58;;;;;;;;;;5051308;28;20172;-67
2022/08/19 08:54:58;;;;;;;29.33;19.75;;;;;;;;;;5042456;28;20509;-64
2022/08/19 08:57:32;;;;;;;32.47;21.33;;;;;;;;;;5050894;28;20071;-65
2022/08/19 09:00:10;;;;;;;38.00;21.55;;;;;;;;;;5051017;28;20057;-65
2022/08/19 09:02:41;;;;;;;37.13;21.38;;;;;;;;;;5051073;28;20103;-66
2022/08/19 09:05:09;;;;;;;32.17;21.70;;;;;;;;;;5050080;28;20421;-65
2022/08/19 09:08:04;;;;;;;37.67;20.77;;;;;;;;;;5049195;28;20057;-66
2022/08/19 09:10:36;;;;;;;30.67;19.75;;;;;;;;;;5049535;28;20093;-64
2022/08/19 09:13:16;;;;;;;33.92;20.58;;;;;;;;;;5051159;28;20053;-64
2022/08/19 09:15:44;;;;;;;32.88;19.65;;;;;;;;;;5051314;28;20049;-66
2022/08/19 09:18:12;;;;;;;30.50;19.52;;;;;;;;;;5051161;28;20081;-66
2022/08/19 09:20:44;;;;;;;29.85;19.42;;;;;;;;;;5050901;28;20058;-65
2022/08/19 09:23:11;;;;;;;27.80;18.98;;;;;;;;;;5046691;28;20084;-65
2022/08/19 09:25:39;;;;;;;32.50;20.63;;;;;;;;;;5052544;28;20054;-67
2022/08/19 09:28:06;;;;;;;28.70;20.13;;;;;;;;;;5049652;28;20592;-66
2022/08/19 09:30:47;;;;;;;27.15;19.42;;;;;;;;;;5050841;28;20063;-67
2022/08/19 09:33:15;;;;;;;36.28;20.98;;;;;;;;;;5051294;28;20521;-66
2022/08/19 09:35:42;;;;;;;28.15;20.20;;;;;;;;;;5047362;28;20053;-67
2022/08/19 09:38:18;;;;;;;27.83;20.40;;;;;;;;;;5049708;28;20512;-67
2022/08/19 09:40:44;;;;;;;28.05;19.88;;;;;;;;;;5049510;28;20058;-67
2022/08/19 09:43:11;;;;;;;30.10;20.17;;;;;;;;;;5053800;28;20056;-66
2022/08/19 09:45:39;;;;;;;27.70;18.73;;;;;;;;;;5054292;28;20092;-66
2022/08/19 09:48:05;;;;;;;26.63;18.27;;;;;;;;;;5054792;28;20055;-65
2022/08/19 09:50:33;;;;;;;26.67;19.08;;;;;;;;;;5053763;28;20053;-66
2022/08/19 09:53:00;;;;;;;26.27;19.10;;;;;;;;;;5052849;28;20060;-67
2022/08/19 09:55:26;;;;;;;25.50;18.92;;;;;;;;;;5052997;28;20584;-66
2022/08/19 09:57:59;;;;;;;26.77;17.00;;;;;;;;;;5053578;28;20046;-65
2022/08/19 10:00:26;;;;;;;22.30;16.27;;;;;;;;;;5053387;28;20059;-66
2022/08/19 10:02:52;;;;;;;25.70;18.20;;;;;;;;;;5052855;28;20081;-65
2022/08/19 10:08:07;;;;;;;23.70;16.92;;;;;;;;;;5052048;28;20635;-64
2022/08/19 10:10:43;;;;;;;22.55;17.00;;;;;;;;;;5052878;28;20515;-66
2022/08/19 10:13:12;;;;;;;22.77;14.18;;;;;;;;;;5053984;28;20519;-65
2022/08/19 10:15:40;;;;;;;20.52;15.38;;;;;;;;;;5053526;28;20515;-65
2022/08/19 10:18:13;;;;;;;19.55;14.75;;;;;;;;;;5053913;28;20061;-64
2022/08/19 10:20:41;;;;;;;18.20;13.43;;;;;;;;;;5053536;28;20054;-65
2022/08/19 10:23:08;;;;;;;20.70;15.30;;;;;;;;;;5051959;28;20065;-68
2022/08/19 10:25:35;;;;;;;19.65;15.48;;;;;;;;;;5052980;28;20125;-67
2022/08/19 10:28:04;;;;;;;22.45;15.68;;;;;;;;;;5066575;28;20060;-66
2022/08/19 10:30:35;;;;;;;19.38;14.52;;;;;;;;;;5060864;28;20081;-64
2022/08/19 10:33:02;;;;;;;18.65;14.25;;;;;;;;;;5053566;28;20050;-67
2022/08/19 10:35:36;;;;;;;20.63;15.85;;;;;;;;;;5053294;28;20095;-67
2022/08/19 10:38:21;;;;;;;;;;;;;;;;;;5052901;28;20172;-69
2022/08/19 10:40:48;;;;;;;20.05;15.40;;;;;;;;;;5050727;28;43604;-67
2022/08/19 10:43:14;;;;;;;19.38;15.75;;;;;;;;;;5051650;28;20060;-66
2022/08/19 10:45:42;;;;;;;16.83;14.15;;;;;;;;;;5040309;28;20111;-67
2022/08/19 10:48:17;;;;;;;16.92;15.02;;;;;;;;;;5052379;28;20534;-67
2022/08/19 10:53:29;;;;;;;17.95;14.30;;;;;;;;;;5051864;28;20131;-66
2022/08/19 10:58:41;;;;;;;17.25;15.38;;;;;;;;;;5053175;28;20053;-69
2022/08/19 11:01:09;;;;;;;17.70;15.82;;;;;;;;;;5052768;28;20041;-68
2022/08/19 11:03:35;;;;;;;21.08;16.27;;;;;;;;;;5048102;28;20065;-69
2022/08/19 11:06:04;;;;;;;20.00;15.98;;;;;;;;;;5051728;28;20057;-67
2022/08/19 11:08:31;;;;;;;19.52;15.52;;;;;;;;;;5051131;28;20080;-68
2022/08/19 11:11:00;;;;;;;21.20;15.25;;;;;;;;;;5051540;28;20538;-64
2022/08/19 11:13:28;;;;;;;21.52;16.67;;;;;;;;;;5052967;28;20066;-65
2022/08/19 11:15:58;;;;;;;22.02;15.68;;;;;;;;;;5047818;28;20058;-65
2022/08/19 11:18:30;;;;;;;17.20;14.23;;;;;;;;;;5049247;28;20140;-66
2022/08/19 11:21:05;;;;;;;21.85;16.50;;;;;;;;;;5044119;28;20054;-66
2022/08/19 11:23:31;;;;;;;19.60;16.23;;;;;;;;;;5040448;28;20049;-68
2022/08/19 11:25:59;;;;;;;17.95;15.07;;;;;;;;;;5051367;28;20053;-66
2022/08/19 11:28:25;;;;;;;20.38;15.23;;;;;;;;;;5051893;28;20053;-68
2022/08/19 11:30:51;;;;;;;16.45;13.95;;;;;;;;;;5051008;28;20060;-66
2022/08/19 11:33:18;;;;;;;19.15;15.98;;;;;;;;;;5051845;28;20046;-66
2022/08/19 11:35:45;;;;;;;16.98;14.95;;;;;;;;;;5051668;28;20053;-66
2022/08/19 11:38:11;;;;;;;18.80;14.90;;;;;;;;;;5051402;28;20052;-65
2022/08/19 11:40:37;;;;;;;17.10;15.35;;;;;;;;;;5050567;28;20065;-66
2022/08/19 11:43:04;;;;;;;20.08;14.77;;;;;;;;;;5050229;28;20055;-65
2022/08/19 11:45:30;;;;;;;17.35;14.68;;;;;;;;;;5050777;28;20053;-67
2022/08/19 11:47:57;;;;;;;19.70;15.38;;;;;;;;;;5050292;28;20060;-67
2022/08/19 11:50:24;;;;;;;20.77;15.00;;;;;;;;;;5050316;28;20049;-66
2022/08/19 11:52:53;;;;;;;20.95;16.23;;;;;;;;;;5051520;28;20056;-66
2022/08/19 11:55:20;;;;;;;21.48;17.35;;;;;;;;;;5049233;28;20580;-65
2022/08/19 11:57:46;;;;;;;22.58;16.13;;;;;;;;;;5058288;28;20148;-67
2022/08/19 12:00:13;;;;;;;19.38;17.30;;;;;;;;;;5054700;28;20083;-69
2022/08/19 12:02:39;;;;;;;20.10;15.98;;;;;;;;;;5061272;28;20045;-67
2022/08/19 12:05:06;;;;;;;25.38;17.27;;;;;;;;;;5051240;28;20065;-67
2022/08/19 12:07:37;;;;;;;22.40;16.92;;;;;;;;;;5051441;28;20091;-67
2022/08/19 12:10:04;;;;;;;30.60;16.00;;;;;;;;;;5050054;28;20057;-67
2022/08/19 12:12:30;;;;;;;22.15;15.65;;;;;;;;;;5061702;28;20136;-67
2022/08/19 12:14:58;;;;;;;19.45;15.23;;;;;;;;;;5052521;28;20055;-66
2022/08/19 12:17:25;;;;;;;28.33;17.73;;;;;;;;;;5051245;28;20140;-67
2022/08/19 12:19:52;;;;;;;29.02;19.08;;;;;;;;;;5050793;28;20049;-67
2022/08/19 12:22:20;;;;;;;24.52;20.13;;;;;;;;;;5051773;28;20137;-66
2022/08/19 12:24:47;;;;;;;29.50;21.98;;;;;;;;;;5043240;28;20053;-69
2022/08/19 12:27:13;;;;;;;29.95;23.35;;;;;;;;;;5050819;28;20049;-69
2022/08/19 12:30:00;;;;;;;32.15;25.95;;;;;;;;;;5043478;28;20054;-69
2022/08/19 12:32:26;;;;;;;35.05;24.60;;;;;;;;;;5051599;28;20045;-69
2022/08/19 12:34:52;;;;;;;28.63;22.33;;;;;;;;;;5050271;28;20041;-70
2022/08/19 12:37:20;;;;;;;29.23;20.20;;;;;;;;;;5049702;28;20060;-72
2022/08/19 12:39:46;;;;;;;29.65;17.75;;;;;;;;;;5049524;28;20053;-72
2022/08/19 12:42:13;;;;;;;20.92;14.30;;;;;;;;;;5050575;28;20091;-71
2022/08/19 12:44:41;;;;;;;20.92;14.35;;;;;;;;;;5049213;28;20836;-73
2022/08/19 12:47:08;;;;;;;18.70;15.95;;;;;;;;;;5051602;28;20055;-73
2022/08/19 12:49:36;;;;;;;17.73;13.70;;;;;;;;;;5049871;28;20123;-72
2022/08/19 12:52:21;;;;;;;16.65;14.45;;;;;;;;;;5049154;28;20783;-73
2022/08/19 12:54:49;;;;;;;18.98;15.25;;;;;;;;;;5049585;28;20060;-72
2022/08/19 12:57:22;;;;;;;13.70;11.77;;;;;;;;;;5044335;28;20068;-71
2022/08/19 12:59:58;;;;;;;13.20;11.80;;;;;;;;;;5042722;28;20076;-70
2022/08/19 13:02:26;;;;;;;11.32;9.88;;;;;;;;;;5036166;28;20061;-70
2022/08/19 13:04:52;;;;;;;13.10;10.05;;;;;;;;;;5047927;28;20053;-71
2022/08/19 13:07:19;;;;;;;12.80;9.95;;;;;;;;;;5048297;28;20054;-69
2022/08/19 13:09:45;;;;;;;12.35;11.02;;;;;;;;;;5049203;28;20067;-69
2022/08/19 13:12:13;;;;;;;12.30;10.93;;;;;;;;;;5050399;28;20053;-69
2022/08/19 13:14:40;;;;;;;14.45;12.82;;;;;;;;;;5050423;28;20056;-69
2022/08/19 13:17:08;;;;;;;16.77;13.82;;;;;;;;;;5048895;28;20045;-70
2022/08/19 13:19:36;;;;;;;18.02;15.30;;;;;;;;;;5050424;28;20148;-71
2022/08/19 13:22:03;;;;;;;20.38;16.42;;;;;;;;;;5050602;28;20085;-71
2022/08/19 13:24:38;;;;;;;16.63;14.90;;;;;;;;;;5048562;28;20058;-70
2022/08/19 13:27:11;;;;;;;18.90;16.17;;;;;;;;;;5050746;28;20049;-68
2022/08/19 13:35:10;;;;;;;24.83;20.27;;;;;;;;;;5050676;28;20054;-68
2022/08/19 13:37:42;;;;;;;25.10;19.48;;;;;;;;;;5050628;28;20111;-68
2022/08/19 13:40:15;;;;;;;24.23;20.08;;;;;;;;;;5047164;28;20060;-67
2022/08/19 13:42:43;;;;;;;30.67;19.85;;;;;;;;;;5054126;28;20578;-67
2022/08/19 13:45:10;;;;;;;24.90;20.83;;;;;;;;;;5049928;28;20053;-67
2022/08/19 13:47:42;;;;;;;26.55;20.23;;;;;;;;;;5047802;28;20052;-68
2022/08/19 13:50:10;;;;;;;25.58;19.10;;;;;;;;;;5048585;28;20058;-68
2022/08/19 13:52:38;;;;;;;16.77;14.13;;;;;;;;;;5050182;28;20572;-68
2022/08/19 13:55:05;;;;;;;19.65;15.35;;;;;;;;;;5045681;28;20424;-69
2022/08/19 13:57:31;;;;;;;18.00;13.82;;;;;;;;;;5049768;28;20550;-68
2022/08/19 14:00:03;;;;;;;17.63;13.55;;;;;;;;;;5048720;28;20053;-67
2022/08/19 14:02:29;;;;;;;18.50;13.90;;;;;;;;;;5042606;28;20049;-67
2022/08/19 14:04:55;;;;;;;15.60;13.13;;;;;;;;;;5040285;28;20506;-68
2022/08/19 14:07:24;;;;;;;16.45;13.68;;;;;;;;;;5048475;28;20046;-67
2022/08/19 14:09:50;;;;;;;20.10;14.25;;;;;;;;;;5047265;28;20440;-68
2022/08/19 14:12:20;;;;;;;18.65;14.38;;;;;;;;;;5050080;28;20057;-67
2022/08/19 14:14:54;;;;;;;17.58;14.70;;;;;;;;;;5042660;28;20058;-68
2022/08/19 14:17:21;;;;;;;20.52;14.48;;;;;;;;;;5046630;28;20437;-69
2022/08/19 14:19:47;;;;;;;18.20;14.43;;;;;;;;;;5049015;28;20067;-68
2022/08/19 14:22:14;;;;;;;16.23;13.73;;;;;;;;;;5050270;28;20506;-67
2022/08/19 14:24:47;;;;;;;15.98;12.77;;;;;;;;;;5050420;28;20057;-69
2022/08/19 14:27:14;;;;;;;18.27;14.43;;;;;;;;;;5050056;28;20054;-69
2022/08/19 14:29:40;;;;;;;16.70;13.57;;;;;;;;;;5046028;28;20524;-69
2022/08/19 14:32:07;;;;;;;15.98;13.02;;;;;;;;;;5052023;28;20998;-68
2022/08/19 14:34:37;;;;;;;15.27;12.32;;;;;;;;;;5050250;28;20056;-67
2022/08/19 14:37:03;;;;;;;12.02;10.82;;;;;;;;;;5052017;28;20050;-67
2022/08/19 14:39:29;;;;;;;15.25;10.85;;;;;;;;;;5053358;28;20049;-69
2022/08/19 14:41:58;;;;;;;11.85;9.07;;;;;;;;;;5052951;28;20523;-68
2022/08/19 14:44:26;;;;;;;11.23;9.10;;;;;;;;;;5051373;28;20409;-68
2022/08/19 14:46:54;;;;;;;9.10;8.07;;;;;;;;;;5053647;28;20056;-69
2022/08/19 14:49:22;;;;;;;8.63;7.72;;;;;;;;;;5051623;28;20059;-68
2022/08/19 14:52:00;;;;;;;9.07;8.00;;;;;;;;;;5052638;28;20064;-68
2022/08/19 14:54:27;;;;;;;8.30;7.43;;;;;;;;;;5052745;28;20050;-67
2022/08/19 14:56:55;;;;;;;10.23;7.65;;;;;;;;;;5050494;28;20097;-68
2022/08/19 14:59:22;;;;;;;8.27;7.47;;;;;;;;;;5045338;28;20081;-68
2022/08/19 15:01:48;;;;;;;9.55;7.93;;;;;;;;;;5048590;28;20071;-68
2022/08/19 15:04:16;;;;;;;7.55;6.80;;;;;;;;;;5051603;28;20092;-68